sensor_id;sensor_type;location;lat;lon;timestamp;temperature;humidity
25937;DHT22;13733;51.178;4.450;2024-01-27T00:02:01;4.30;69.30
25937;DHT22;13733;51.178;4.450;2024-01-27T00:04:27;4.30;72.80
25937;DHT22;13733;51.178;4.450;2024-01-27T00:06:53;4.40;69.30
25937;DHT22;13733;51.178;4.450;2024-01-27T00:09:20;4.30;69.30
25937;DHT22;13733;51.178;4.450;2024-01-27T00:11:46;4.20;72.40
25937;DHT22;13733;51.178;4.450;2024-01-27T00:14:11;4.10;73.40
25937;DHT22;13733;51.178;4.450;2024-01-27T00:16:37;4.10;75.70
25937;DHT22;13733;51.178;4.450;2024-01-27T00:19:03;4.10;77.50
25937;DHT22;13733;51.178;4.450;2024-01-27T00:21:29;4.20;76.70
25937;DHT22;13733;51.178;4.450;2024-01-27T00:23:54;4.40;69.50
25937;DHT22;13733;51.178;4.450;2024-01-27T00:26:26;4.30;66.80
25937;DHT22;13733;51.178;4.450;2024-01-27T00:28:52;4.30;65.80
25937;DHT22;13733;51.178;4.450;2024-01-27T00:31:18;4.20;66.10
25937;DHT22;13733;51.178;4.450;2024-01-27T00:33:44;4.10;69.40
25937;DHT22;13733;51.178;4.450;2024-01-27T00:36:10;4.00;71.00
25937;DHT22;13733;51.178;4.450;2024-01-27T00:38:36;4.00;73.90
25937;DHT22;13733;51.178;4.450;2024-01-27T00:41:02;4.00;75.00
25937;DHT22;13733;51.178;4.450;2024-01-27T00:43:31;4.10;73.70
25937;DHT22;13733;51.178;4.450;2024-01-27T00:45:57;4.00;72.90
25937;DHT22;13733;51.178;4.450;2024-01-27T00:48:23;4.00;74.70
25937;DHT22;13733;51.178;4.450;2024-01-27T00:50:48;4.00;75.00
25937;DHT22;13733;51.178;4.450;2024-01-27T00:53:14;3.90;75.80
25937;DHT22;13733;51.178;4.450;2024-01-27T00:55:40;3.90;77.10
25937;DHT22;13733;51.178;4.450;2024-01-27T00:58:07;3.90;77.90
25937;DHT22;13733;51.178;4.450;2024-01-27T01:00:32;3.90;77.90
25937;DHT22;13733;51.178;4.450;2024-01-27T01:02:58;4.00;74.40
25937;DHT22;13733;51.178;4.450;2024-01-27T01:05:24;3.90;74.90
25937;DHT22;13733;51.178;4.450;2024-01-27T01:07:50;3.90;78.20
25937;DHT22;13733;51.178;4.450;2024-01-27T01:10:15;3.90;78.30
25937;DHT22;13733;51.178;4.450;2024-01-27T01:12:41;3.80;79.40
25937;DHT22;13733;51.178;4.450;2024-01-27T01:15:07;3.90;80.10
25937;DHT22;13733;51.178;4.450;2024-01-27T01:17:33;4.00;78.60
25937;DHT22;13733;51.178;4.450;2024-01-27T01:19:59;4.00;77.90
25937;DHT22;13733;51.178;4.450;2024-01-27T01:22:25;4.00;73.50
25937;DHT22;13733;51.178;4.450;2024-01-27T01:24:50;4.10;71.00
25937;DHT22;13733;51.178;4.450;2024-01-27T01:27:16;4.20;66.20
25937;DHT22;13733;51.178;4.450;2024-01-27T01:29:44;4.40;60.30
25937;DHT22;13733;51.178;4.450;2024-01-27T01:32:10;4.20;60.20
25937;DHT22;13733;51.178;4.450;2024-01-27T01:34:36;4.10;65.40
25937;DHT22;13733;51.178;4.450;2024-01-27T01:37:01;4.00;71.80
25937;DHT22;13733;51.178;4.450;2024-01-27T01:39:28;3.90;77.10
25937;DHT22;13733;51.178;4.450;2024-01-27T01:41:54;3.90;79.00
25937;DHT22;13733;51.178;4.450;2024-01-27T01:44:20;4.00;78.40
25937;DHT22;13733;51.178;4.450;2024-01-27T01:46:47;4.00;76.30
25937;DHT22;13733;51.178;4.450;2024-01-27T01:49:13;4.10;76.60
25937;DHT22;13733;51.178;4.450;2024-01-27T01:51:39;4.00;74.60
25937;DHT22;13733;51.178;4.450;2024-01-27T01:54:06;4.10;75.40
25937;DHT22;13733;51.178;4.450;2024-01-27T01:56:32;4.00;75.10
25937;DHT22;13733;51.178;4.450;2024-01-27T01:58:58;4.00;77.20
25937;DHT22;13733;51.178;4.450;2024-01-27T02:01:23;3.90;80.30
25937;DHT22;13733;51.178;4.450;2024-01-27T02:03:53;3.80;85.50
25937;DHT22;13733;51.178;4.450;2024-01-27T02:06:19;3.70;88.00
25937;DHT22;13733;51.178;4.450;2024-01-27T02:08:45;3.60;89.90
25937;DHT22;13733;51.178;4.450;2024-01-27T02:11:11;3.60;91.30
25937;DHT22;13733;51.178;4.450;2024-01-27T02:13:36;3.60;92.50
25937;DHT22;13733;51.178;4.450;2024-01-27T02:16:02;3.50;92.80
25937;DHT22;13733;51.178;4.450;2024-01-27T02:18:28;3.50;93.40
25937;DHT22;13733;51.178;4.450;2024-01-27T02:20:54;3.50;94.00
25937;DHT22;13733;51.178;4.450;2024-01-27T02:23:19;3.60;94.00
25937;DHT22;13733;51.178;4.450;2024-01-27T02:25:46;3.50;93.90
25937;DHT22;13733;51.178;4.450;2024-01-27T02:28:12;3.50;94.00
25937;DHT22;13733;51.178;4.450;2024-01-27T02:30:39;3.40;95.10
25937;DHT22;13733;51.178;4.450;2024-01-27T02:33:05;3.40;95.90
25937;DHT22;13733;51.178;4.450;2024-01-27T02:35:31;3.40;96.00
25937;DHT22;13733;51.178;4.450;2024-01-27T02:37:57;3.50;95.50
25937;DHT22;13733;51.178;4.450;2024-01-27T02:40:22;3.50;94.50
25937;DHT22;13733;51.178;4.450;2024-01-27T02:42:50;3.50;94.20
25937;DHT22;13733;51.178;4.450;2024-01-27T02:45:17;3.40;94.90
25937;DHT22;13733;51.178;4.450;2024-01-27T02:47:43;3.40;95.70
25937;DHT22;13733;51.178;4.450;2024-01-27T02:50:09;3.40;96.10
25937;DHT22;13733;51.178;4.450;2024-01-27T02:52:35;3.40;96.60
25937;DHT22;13733;51.178;4.450;2024-01-27T02:55:01;3.40;96.80
25937;DHT22;13733;51.178;4.450;2024-01-27T02:57:27;3.30;97.40
25937;DHT22;13733;51.178;4.450;2024-01-27T02:59:53;3.20;97.90
25937;DHT22;13733;51.178;4.450;2024-01-27T03:02:18;3.20;98.40
25937;DHT22;13733;51.178;4.450;2024-01-27T03:04:44;3.20;99.10
25937;DHT22;13733;51.178;4.450;2024-01-27T03:07:10;3.20;99.00
25937;DHT22;13733;51.178;4.450;2024-01-27T03:09:36;3.20;98.90
25937;DHT22;13733;51.178;4.450;2024-01-27T03:12:02;3.30;98.70
25937;DHT22;13733;51.178;4.450;2024-01-27T03:14:28;3.30;98.30
25937;DHT22;13733;51.178;4.450;2024-01-27T03:16:54;3.30;98.50
25937;DHT22;13733;51.178;4.450;2024-01-27T03:19:20;3.30;98.30
25937;DHT22;13733;51.178;4.450;2024-01-27T03:21:46;3.40;97.80
25937;DHT22;13733;51.178;4.450;2024-01-27T03:24:13;3.40;97.00
25937;DHT22;13733;51.178;4.450;2024-01-27T03:26:38;3.50;96.10
25937;DHT22;13733;51.178;4.450;2024-01-27T03:29:05;3.40;95.80
25937;DHT22;13733;51.178;4.450;2024-01-27T03:31:34;3.30;96.40
25937;DHT22;13733;51.178;4.450;2024-01-27T03:34:00;3.30;96.70
25937;DHT22;13733;51.178;4.450;2024-01-27T03:36:27;3.40;96.60
25937;DHT22;13733;51.178;4.450;2024-01-27T03:38:53;3.40;95.80
25937;DHT22;13733;51.178;4.450;2024-01-27T03:41:19;3.40;96.00
25937;DHT22;13733;51.178;4.450;2024-01-27T03:43:45;3.40;96.30
25937;DHT22;13733;51.178;4.450;2024-01-27T03:46:11;3.40;96.10
25937;DHT22;13733;51.178;4.450;2024-01-27T03:48:37;3.30;95.80
25937;DHT22;13733;51.178;4.450;2024-01-27T03:51:03;3.30;96.50
25937;DHT22;13733;51.178;4.450;2024-01-27T03:53:29;3.20;97.30
25937;DHT22;13733;51.178;4.450;2024-01-27T03:55:56;3.30;97.50
25937;DHT22;13733;51.178;4.450;2024-01-27T03:58:24;3.30;97.20
25937;DHT22;13733;51.178;4.450;2024-01-27T04:00:50;3.40;96.70
25937;DHT22;13733;51.178;4.450;2024-01-27T04:03:17;3.40;95.70
25937;DHT22;13733;51.178;4.450;2024-01-27T04:05:43;3.10;96.40
25937;DHT22;13733;51.178;4.450;2024-01-27T04:08:09;3.00;98.20
25937;DHT22;13733;51.178;4.450;2024-01-27T04:10:36;2.90;99.50
25937;DHT22;13733;51.178;4.450;2024-01-27T04:13:02;2.90;99.90
25937;DHT22;13733;51.178;4.450;2024-01-27T04:15:27;3.00;99.90
25937;DHT22;13733;51.178;4.450;2024-01-27T04:17:53;2.90;99.90
25937;DHT22;13733;51.178;4.450;2024-01-27T04:20:20;2.90;99.90
25937;DHT22;13733;51.178;4.450;2024-01-27T04:22:46;2.80;99.90
25937;DHT22;13733;51.178;4.450;2024-01-27T04:25:11;2.80;99.90
25937;DHT22;13733;51.178;4.450;2024-01-27T04:27:38;2.80;99.90
25937;DHT22;13733;51.178;4.450;2024-01-27T04:30:08;2.80;99.90
25937;DHT22;13733;51.178;4.450;2024-01-27T04:32:35;2.80;99.90
25937;DHT22;13733;51.178;4.450;2024-01-27T04:35:01;2.90;99.90
25937;DHT22;13733;51.178;4.450;2024-01-27T04:37:28;2.90;99.90
25937;DHT22;13733;51.178;4.450;2024-01-27T04:39:54;2.90;99.90
25937;DHT22;13733;51.178;4.450;2024-01-27T04:42:20;3.10;99.90
25937;DHT22;13733;51.178;4.450;2024-01-27T04:44:46;3.10;98.60
25937;DHT22;13733;51.178;4.450;2024-01-27T04:47:12;3.00;98.50
25937;DHT22;13733;51.178;4.450;2024-01-27T04:49:38;3.00;98.40
25937;DHT22;13733;51.178;4.450;2024-01-27T04:52:04;2.90;98.80
25937;DHT22;13733;51.178;4.450;2024-01-27T04:54:30;2.80;99.90
25937;DHT22;13733;51.178;4.450;2024-01-27T04:56:56;2.80;99.90
25937;DHT22;13733;51.178;4.450;2024-01-27T04:59:22;2.70;99.90
25937;DHT22;13733;51.178;4.450;2024-01-27T05:01:47;2.80;99.90
25937;DHT22;13733;51.178;4.450;2024-01-27T05:04:13;2.80;99.90
25937;DHT22;13733;51.178;4.450;2024-01-27T05:06:44;2.70;99.90
25937;DHT22;13733;51.178;4.450;2024-01-27T05:09:10;2.50;99.90
25937;DHT22;13733;51.178;4.450;2024-01-27T05:11:36;2.60;99.90
25937;DHT22;13733;51.178;4.450;2024-01-27T05:14:02;2.60;99.90
25937;DHT22;13733;51.178;4.450;2024-01-27T05:16:28;2.70;99.90
25937;DHT22;13733;51.178;4.450;2024-01-27T05:18:54;2.70;99.90
25937;DHT22;13733;51.178;4.450;2024-01-27T05:21:20;2.60;99.90
25937;DHT22;13733;51.178;4.450;2024-01-27T05:23:46;2.60;99.90
25937;DHT22;13733;51.178;4.450;2024-01-27T05:26:12;2.60;99.90
25937;DHT22;13733;51.178;4.450;2024-01-27T05:28:38;2.60;99.90
25937;DHT22;13733;51.178;4.450;2024-01-27T05:31:08;2.60;99.90
25937;DHT22;13733;51.178;4.450;2024-01-27T05:33:38;2.70;99.90
25937;DHT22;13733;51.178;4.450;2024-01-27T05:36:05;2.80;99.90
25937;DHT22;13733;51.178;4.450;2024-01-27T05:38:32;2.90;99.90
25937;DHT22;13733;51.178;4.450;2024-01-27T05:41:01;2.70;99.90
25937;DHT22;13733;51.178;4.450;2024-01-27T05:43:28;2.60;99.90
25937;DHT22;13733;51.178;4.450;2024-01-27T05:45:54;2.60;99.90
25937;DHT22;13733;51.178;4.450;2024-01-27T05:48:20;2.80;99.90
25937;DHT22;13733;51.178;4.450;2024-01-27T05:50:59;2.80;99.90
25937;DHT22;13733;51.178;4.450;2024-01-27T05:53:26;2.70;99.90
25937;DHT22;13733;51.178;4.450;2024-01-27T05:55:52;2.70;99.90
25937;DHT22;13733;51.178;4.450;2024-01-27T05:58:22;2.70;99.90
25937;DHT22;13733;51.178;4.450;2024-01-27T06:00:48;2.70;99.90
25937;DHT22;13733;51.178;4.450;2024-01-27T06:03:14;2.60;99.90
25937;DHT22;13733;51.178;4.450;2024-01-27T06:05:41;2.50;99.90
25937;DHT22;13733;51.178;4.450;2024-01-27T06:08:08;2.60;99.90
25937;DHT22;13733;51.178;4.450;2024-01-27T06:10:34;2.50;99.90
25937;DHT22;13733;51.178;4.450;2024-01-27T06:13:03;2.50;99.90
25937;DHT22;13733;51.178;4.450;2024-01-27T06:15:29;2.60;99.90
25937;DHT22;13733;51.178;4.450;2024-01-27T06:17:55;2.60;99.90
25937;DHT22;13733;51.178;4.450;2024-01-27T06:20:21;2.50;99.90
25937;DHT22;13733;51.178;4.450;2024-01-27T06:22:47;2.40;99.90
25937;DHT22;13733;51.178;4.450;2024-01-27T06:25:14;2.30;99.90
25937;DHT22;13733;51.178;4.450;2024-01-27T06:27:40;2.30;99.90
25937;DHT22;13733;51.178;4.450;2024-01-27T06:30:08;2.20;99.90
25937;DHT22;13733;51.178;4.450;2024-01-27T06:32:35;2.20;99.90
25937;DHT22;13733;51.178;4.450;2024-01-27T06:35:01;2.20;99.90
25937;DHT22;13733;51.178;4.450;2024-01-27T06:37:26;2.20;99.90
25937;DHT22;13733;51.178;4.450;2024-01-27T06:39:52;2.30;99.90
25937;DHT22;13733;51.178;4.450;2024-01-27T06:42:19;2.20;99.90
25937;DHT22;13733;51.178;4.450;2024-01-27T06:44:45;2.20;99.90
25937;DHT22;13733;51.178;4.450;2024-01-27T06:47:10;2.10;99.90
25937;DHT22;13733;51.178;4.450;2024-01-27T06:49:36;2.20;99.90
25937;DHT22;13733;51.178;4.450;2024-01-27T06:52:03;2.20;99.90
25937;DHT22;13733;51.178;4.450;2024-01-27T06:54:29;2.20;99.90
25937;DHT22;13733;51.178;4.450;2024-01-27T06:56:54;2.20;99.90
25937;DHT22;13733;51.178;4.450;2024-01-27T06:59:20;2.30;99.90
25937;DHT22;13733;51.178;4.450;2024-01-27T07:01:47;2.30;99.90
25937;DHT22;13733;51.178;4.450;2024-01-27T07:04:15;2.30;99.90
25937;DHT22;13733;51.178;4.450;2024-01-27T07:06:41;2.30;99.90
25937;DHT22;13733;51.178;4.450;2024-01-27T07:09:07;2.30;99.90
25937;DHT22;13733;51.178;4.450;2024-01-27T07:11:35;2.40;99.90
25937;DHT22;13733;51.178;4.450;2024-01-27T07:14:02;2.50;99.90
25937;DHT22;13733;51.178;4.450;2024-01-27T07:16:28;2.40;99.90
25937;DHT22;13733;51.178;4.450;2024-01-27T07:18:54;2.40;99.90
25937;DHT22;13733;51.178;4.450;2024-01-27T07:21:20;2.40;99.90
25937;DHT22;13733;51.178;4.450;2024-01-27T07:23:46;2.30;99.90
25937;DHT22;13733;51.178;4.450;2024-01-27T07:26:15;2.30;99.90
25937;DHT22;13733;51.178;4.450;2024-01-27T07:28:41;2.40;99.90
25937;DHT22;13733;51.178;4.450;2024-01-27T07:31:07;2.30;99.90
25937;DHT22;13733;51.178;4.450;2024-01-27T07:33:33;2.30;99.90
25937;DHT22;13733;51.178;4.450;2024-01-27T07:35:59;2.30;99.90
25937;DHT22;13733;51.178;4.450;2024-01-27T07:38:24;2.30;99.90
25937;DHT22;13733;51.178;4.450;2024-01-27T07:40:50;2.30;99.90
25937;DHT22;13733;51.178;4.450;2024-01-27T07:43:16;2.30;99.90
25937;DHT22;13733;51.178;4.450;2024-01-27T07:45:42;2.20;99.90
25937;DHT22;13733;51.178;4.450;2024-01-27T07:48:08;2.30;99.90
25937;DHT22;13733;51.178;4.450;2024-01-27T07:50:34;2.30;99.90
25937;DHT22;13733;51.178;4.450;2024-01-27T07:53:00;2.30;99.90
25937;DHT22;13733;51.178;4.450;2024-01-27T07:55:28;2.50;99.90
25937;DHT22;13733;51.178;4.450;2024-01-27T07:57:54;2.50;99.90
25937;DHT22;13733;51.178;4.450;2024-01-27T08:00:20;2.60;99.90
25937;DHT22;13733;51.178;4.450;2024-01-27T08:02:46;2.60;99.90
25937;DHT22;13733;51.178;4.450;2024-01-27T08:05:12;2.60;99.90
25937;DHT22;13733;51.178;4.450;2024-01-27T08:07:37;2.80;99.90
25937;DHT22;13733;51.178;4.450;2024-01-27T08:10:04;3.10;99.90
25937;DHT22;13733;51.178;4.450;2024-01-27T08:12:31;3.10;99.90
25937;DHT22;13733;51.178;4.450;2024-01-27T08:14:57;3.10;99.90
25937;DHT22;13733;51.178;4.450;2024-01-27T08:17:23;3.10;99.90
25937;DHT22;13733;51.178;4.450;2024-01-27T08:19:49;3.20;99.90
25937;DHT22;13733;51.178;4.450;2024-01-27T08:22:14;3.20;99.90
25937;DHT22;13733;51.178;4.450;2024-01-27T08:24:40;3.10;99.90
25937;DHT22;13733;51.178;4.450;2024-01-27T08:27:06;3.00;99.90
25937;DHT22;13733;51.178;4.450;2024-01-27T08:29:32;3.10;99.90
25937;DHT22;13733;51.178;4.450;2024-01-27T08:31:58;3.30;99.90
25937;DHT22;13733;51.178;4.450;2024-01-27T08:34:24;3.50;99.90
25937;DHT22;13733;51.178;4.450;2024-01-27T08:36:51;3.70;99.90
25937;DHT22;13733;51.178;4.450;2024-01-27T08:39:17;3.80;99.90
25937;DHT22;13733;51.178;4.450;2024-01-27T08:41:42;3.70;99.90
25937;DHT22;13733;51.178;4.450;2024-01-27T08:44:09;3.50;99.90
25937;DHT22;13733;51.178;4.450;2024-01-27T08:46:35;3.60;99.90
25937;DHT22;13733;51.178;4.450;2024-01-27T08:49:02;3.60;99.90
25937;DHT22;13733;51.178;4.450;2024-01-27T08:51:28;3.70;99.90
25937;DHT22;13733;51.178;4.450;2024-01-27T08:53:54;3.70;99.90
25937;DHT22;13733;51.178;4.450;2024-01-27T08:56:20;3.70;99.90
25937;DHT22;13733;51.178;4.450;2024-01-27T08:58:46;3.90;99.90
25937;DHT22;13733;51.178;4.450;2024-01-27T09:01:18;4.10;99.90
25937;DHT22;13733;51.178;4.450;2024-01-27T09:03:44;4.20;99.90
25937;DHT22;13733;51.178;4.450;2024-01-27T09:06:10;4.10;99.90
25937;DHT22;13733;51.178;4.450;2024-01-27T09:08:36;3.90;99.90
25937;DHT22;13733;51.178;4.450;2024-01-27T09:11:03;4.00;99.90
25937;DHT22;13733;51.178;4.450;2024-01-27T09:13:28;4.10;99.90
25937;DHT22;13733;51.178;4.450;2024-01-27T09:15:57;4.30;99.90
25937;DHT22;13733;51.178;4.450;2024-01-27T09:18:23;4.30;99.60
25937;DHT22;13733;51.178;4.450;2024-01-27T09:20:50;4.30;99.60
25937;DHT22;13733;51.178;4.450;2024-01-27T09:23:17;4.50;98.30
25937;DHT22;13733;51.178;4.450;2024-01-27T09:25:43;4.80;96.40
25937;DHT22;13733;51.178;4.450;2024-01-27T09:28:11;4.70;95.60
25937;DHT22;13733;51.178;4.450;2024-01-27T09:30:37;4.60;97.70
25937;DHT22;13733;51.178;4.450;2024-01-27T09:33:03;4.50;98.90
25937;DHT22;13733;51.178;4.450;2024-01-27T09:35:29;4.70;98.50
25937;DHT22;13733;51.178;4.450;2024-01-27T09:37:55;5.00;95.60
25937;DHT22;13733;51.178;4.450;2024-01-27T09:40:21;5.10;93.80
25937;DHT22;13733;51.178;4.450;2024-01-27T09:42:52;5.00;95.10
25937;DHT22;13733;51.178;4.450;2024-01-27T09:45:21;5.00;96.90
25937;DHT22;13733;51.178;4.450;2024-01-27T09:47:49;5.10;97.70
25937;DHT22;13733;51.178;4.450;2024-01-27T09:50:17;5.30;96.40
25937;DHT22;13733;51.178;4.450;2024-01-27T09:52:43;5.40;94.80
25937;DHT22;13733;51.178;4.450;2024-01-27T09:55:09;5.60;92.90
25937;DHT22;13733;51.178;4.450;2024-01-27T09:57:38;5.60;93.10
25937;DHT22;13733;51.178;4.450;2024-01-27T10:00:09;5.70;93.70
25937;DHT22;13733;51.178;4.450;2024-01-27T10:02:39;5.90;92.90
25937;DHT22;13733;51.178;4.450;2024-01-27T10:05:08;6.00;91.20
25937;DHT22;13733;51.178;4.450;2024-01-27T10:07:36;5.90;91.60
25937;DHT22;13733;51.178;4.450;2024-01-27T10:10:02;5.90;93.30
25937;DHT22;13733;51.178;4.450;2024-01-27T10:12:29;6.10;93.50
25937;DHT22;13733;51.178;4.450;2024-01-27T10:14:59;6.30;92.30
25937;DHT22;13733;51.178;4.450;2024-01-27T10:17:26;6.50;90.90
25937;DHT22;13733;51.178;4.450;2024-01-27T10:20:05;6.70;87.10
25937;DHT22;13733;51.178;4.450;2024-01-27T10:22:40;7.00;76.60
25937;DHT22;13733;51.178;4.450;2024-01-27T10:25:07;7.20;75.70
25937;DHT22;13733;51.178;4.450;2024-01-27T10:27:34;7.30;70.00
25937;DHT22;13733;51.178;4.450;2024-01-27T10:30:00;7.40;70.10
25937;DHT22;13733;51.178;4.450;2024-01-27T10:32:25;7.80;59.30
25937;DHT22;13733;51.178;4.450;2024-01-27T10:35:05;7.90;54.80
25937;DHT22;13733;51.178;4.450;2024-01-27T10:37:34;8.10;50.10
25937;DHT22;13733;51.178;4.450;2024-01-27T10:40:11;8.20;38.90
25937;DHT22;13733;51.178;4.450;2024-01-27T10:42:39;8.10;41.70
25937;DHT22;13733;51.178;4.450;2024-01-27T10:45:05;8.10;40.30
25937;DHT22;13733;51.178;4.450;2024-01-27T10:47:32;8.40;33.70
25937;DHT22;13733;51.178;4.450;2024-01-27T10:49:59;8.70;25.80
25937;DHT22;13733;51.178;4.450;2024-01-27T10:52:29;9.00;17.30
25937;DHT22;13733;51.178;4.450;2024-01-27T10:55:05;9.40;4.80
25937;DHT22;13733;51.178;4.450;2024-01-27T10:57:34;9.80;1.00
25937;DHT22;13733;51.178;4.450;2024-01-27T11:00:04;9.70;1.00
25937;DHT22;13733;51.178;4.450;2024-01-27T11:02:34;9.90;1.00
25937;DHT22;13733;51.178;4.450;2024-01-27T11:05:04;10.10;1.00
25937;DHT22;13733;51.178;4.450;2024-01-27T11:07:34;10.20;99.90
25937;DHT22;13733;51.178;4.450;2024-01-27T11:10:00;10.50;99.90
25937;DHT22;13733;51.178;4.450;2024-01-27T11:12:26;10.50;99.90
25937;DHT22;13733;51.178;4.450;2024-01-27T11:14:53;10.50;99.90
25937;DHT22;13733;51.178;4.450;2024-01-27T11:17:19;10.30;99.90
25937;DHT22;13733;51.178;4.450;2024-01-27T11:19:45;10.20;99.90
25937;DHT22;13733;51.178;4.450;2024-01-27T11:22:28;10.50;99.90
25937;DHT22;13733;51.178;4.450;2024-01-27T11:27:32;10.80;99.90
25937;DHT22;13733;51.178;4.450;2024-01-27T11:29:58;11.20;69.70
25937;DHT22;13733;51.178;4.450;2024-01-27T11:32:26;11.50;1.00
25937;DHT22;13733;51.178;4.450;2024-01-27T11:34:52;11.60;99.90
25937;DHT22;13733;51.178;4.450;2024-01-27T11:37:18;11.90;99.90
25937;DHT22;13733;51.178;4.450;2024-01-27T11:39:51;12.10;99.90
25937;DHT22;13733;51.178;4.450;2024-01-27T11:42:19;12.10;1.00
25937;DHT22;13733;51.178;4.450;2024-01-27T11:44:46;12.50;1.00
25937;DHT22;13733;51.178;4.450;2024-01-27T11:47:19;12.70;1.00
25937;DHT22;13733;51.178;4.450;2024-01-27T11:49:53;13.10;1.00
25937;DHT22;13733;51.178;4.450;2024-01-27T11:52:19;13.70;99.90
25937;DHT22;13733;51.178;4.450;2024-01-27T11:54:45;14.00;1.00
25937;DHT22;13733;51.178;4.450;2024-01-27T11:57:11;14.40;1.00
25937;DHT22;13733;51.178;4.450;2024-01-27T11:59:36;14.70;99.90
25937;DHT22;13733;51.178;4.450;2024-01-27T12:02:02;15.10;99.90
25937;DHT22;13733;51.178;4.450;2024-01-27T12:04:30;15.60;1.00
25937;DHT22;13733;51.178;4.450;2024-01-27T12:06:56;15.80;99.90
25937;DHT22;13733;51.178;4.450;2024-01-27T12:09:22;15.50;99.90
25937;DHT22;13733;51.178;4.450;2024-01-27T12:11:48;15.10;99.90
25937;DHT22;13733;51.178;4.450;2024-01-27T12:14:14;14.80;99.90
25937;DHT22;13733;51.178;4.450;2024-01-27T12:16:40;14.70;99.90
25937;DHT22;13733;51.178;4.450;2024-01-27T12:19:09;14.20;99.90
25937;DHT22;13733;51.178;4.450;2024-01-27T12:21:36;13.80;1.00
25937;DHT22;13733;51.178;4.450;2024-01-27T12:24:02;13.90;99.90
25937;DHT22;13733;51.178;4.450;2024-01-27T12:26:29;14.00;99.90
25937;DHT22;13733;51.178;4.450;2024-01-27T12:28:56;14.10;59.30
25937;DHT22;13733;51.178;4.450;2024-01-27T12:31:24;14.00;99.90
25937;DHT22;13733;51.178;4.450;2024-01-27T12:33:52;14.30;99.90
25937;DHT22;13733;51.178;4.450;2024-01-27T12:36:19;14.30;85.20
25937;DHT22;13733;51.178;4.450;2024-01-27T12:38:58;14.20;85.90
25937;DHT22;13733;51.178;4.450;2024-01-27T12:41:25;14.50;99.90
25937;DHT22;13733;51.178;4.450;2024-01-27T12:43:52;14.10;1.00
25937;DHT22;13733;51.178;4.450;2024-01-27T12:46:18;13.80;1.00
25937;DHT22;13733;51.178;4.450;2024-01-27T12:48:45;13.60;99.90
25937;DHT22;13733;51.178;4.450;2024-01-27T12:51:11;13.80;99.90
25937;DHT22;13733;51.178;4.450;2024-01-27T12:53:41;13.60;99.90
25937;DHT22;13733;51.178;4.450;2024-01-27T12:56:13;13.60;1.00
25937;DHT22;13733;51.178;4.450;2024-01-27T12:58:40;13.10;1.00
25937;DHT22;13733;51.178;4.450;2024-01-27T13:01:07;12.60;37.20
25937;DHT22;13733;51.178;4.450;2024-01-27T13:03:33;12.10;99.90
25937;DHT22;13733;51.178;4.450;2024-01-27T13:06:02;11.90;99.90
25937;DHT22;13733;51.178;4.450;2024-01-27T13:08:28;12.10;99.90
25937;DHT22;13733;51.178;4.450;2024-01-27T13:10:54;12.40;99.90
25937;DHT22;13733;51.178;4.450;2024-01-27T13:13:20;12.40;99.90
25937;DHT22;13733;51.178;4.450;2024-01-27T13:15:46;12.20;99.90
25937;DHT22;13733;51.178;4.450;2024-01-27T13:18:12;12.20;99.90
25937;DHT22;13733;51.178;4.450;2024-01-27T13:20:38;13.10;99.90
25937;DHT22;13733;51.178;4.450;2024-01-27T13:23:06;14.00;99.90
25937;DHT22;13733;51.178;4.450;2024-01-27T13:25:32;14.80;99.90
25937;DHT22;13733;51.178;4.450;2024-01-27T13:27:58;14.60;97.40
25937;DHT22;13733;51.178;4.450;2024-01-27T13:30:24;13.90;99.90
25937;DHT22;13733;51.178;4.450;2024-01-27T13:32:51;13.80;99.90
25937;DHT22;13733;51.178;4.450;2024-01-27T13:35:16;13.70;99.90
25937;DHT22;13733;51.178;4.450;2024-01-27T13:37:42;13.50;99.90
25937;DHT22;13733;51.178;4.450;2024-01-27T13:40:08;13.90;99.90
25937;DHT22;13733;51.178;4.450;2024-01-27T13:42:36;14.50;99.90
25937;DHT22;13733;51.178;4.450;2024-01-27T13:45:03;15.10;99.90
25937;DHT22;13733;51.178;4.450;2024-01-27T13:47:29;15.70;1.00
25937;DHT22;13733;51.178;4.450;2024-01-27T13:49:55;15.80;1.00
25937;DHT22;13733;51.178;4.450;2024-01-27T13:52:21;16.10;99.90
25937;DHT22;13733;51.178;4.450;2024-01-27T13:54:47;16.10;99.90
25937;DHT22;13733;51.178;4.450;2024-01-27T13:57:15;16.20;99.90
25937;DHT22;13733;51.178;4.450;2024-01-27T13:59:41;16.60;99.90
25937;DHT22;13733;51.178;4.450;2024-01-27T14:02:07;17.10;99.90
25937;DHT22;13733;51.178;4.450;2024-01-27T14:04:32;16.90;99.90
25937;DHT22;13733;51.178;4.450;2024-01-27T14:06:59;16.60;99.90
25937;DHT22;13733;51.178;4.450;2024-01-27T14:09:28;16.50;99.90
25937;DHT22;13733;51.178;4.450;2024-01-27T14:11:54;16.30;99.90
25937;DHT22;13733;51.178;4.450;2024-01-27T14:14:19;16.40;99.90
25937;DHT22;13733;51.178;4.450;2024-01-27T14:16:46;16.40;99.90
25937;DHT22;13733;51.178;4.450;2024-01-27T14:19:12;16.50;99.90
25937;DHT22;13733;51.178;4.450;2024-01-27T14:21:38;16.80;99.90
25937;DHT22;13733;51.178;4.450;2024-01-27T14:24:08;17.10;99.90
25937;DHT22;13733;51.178;4.450;2024-01-27T14:26:34;16.40;99.90
25937;DHT22;13733;51.178;4.450;2024-01-27T14:29:00;15.60;99.90
25937;DHT22;13733;51.178;4.450;2024-01-27T14:31:26;15.10;99.90
25937;DHT22;13733;51.178;4.450;2024-01-27T14:33:53;14.80;99.90
25937;DHT22;13733;51.178;4.450;2024-01-27T14:36:19;14.40;99.90
25937;DHT22;13733;51.178;4.450;2024-01-27T14:38:46;14.10;1.00
25937;DHT22;13733;51.178;4.450;2024-01-27T14:41:12;13.70;1.00
25937;DHT22;13733;51.178;4.450;2024-01-27T14:43:38;13.70;99.90
25937;DHT22;13733;51.178;4.450;2024-01-27T14:46:04;13.70;99.90
25937;DHT22;13733;51.178;4.450;2024-01-27T14:48:30;13.40;99.90
25937;DHT22;13733;51.178;4.450;2024-01-27T14:50:57;13.40;1.00
25937;DHT22;13733;51.178;4.450;2024-01-27T14:53:28;13.50;1.00
25937;DHT22;13733;51.178;4.450;2024-01-27T14:55:57;13.40;98.70
25937;DHT22;13733;51.178;4.450;2024-01-27T14:58:23;13.40;91.90
25937;DHT22;13733;51.178;4.450;2024-01-27T15:00:49;13.50;1.00
25937;DHT22;13733;51.178;4.450;2024-01-27T15:03:21;13.20;99.50
25937;DHT22;13733;51.178;4.450;2024-01-27T15:05:50;13.10;99.90
25937;DHT22;13733;51.178;4.450;2024-01-27T15:08:16;12.70;1.00
25937;DHT22;13733;51.178;4.450;2024-01-27T15:10:42;12.40;99.90
25937;DHT22;13733;51.178;4.450;2024-01-27T15:13:11;12.20;99.90
25937;DHT22;13733;51.178;4.450;2024-01-27T15:15:40;12.40;1.00
25937;DHT22;13733;51.178;4.450;2024-01-27T15:18:07;12.30;9.70
25937;DHT22;13733;51.178;4.450;2024-01-27T15:20:34;11.90;99.90
25937;DHT22;13733;51.178;4.450;2024-01-27T15:23:00;11.80;1.00
25937;DHT22;13733;51.178;4.450;2024-01-27T15:25:26;11.90;99.90
25937;DHT22;13733;51.178;4.450;2024-01-27T15:27:52;12.00;99.90
25937;DHT22;13733;51.178;4.450;2024-01-27T15:30:19;12.00;99.90
25937;DHT22;13733;51.178;4.450;2024-01-27T15:32:48;11.70;1.00
25937;DHT22;13733;51.178;4.450;2024-01-27T15:35:14;11.70;99.90
25937;DHT22;13733;51.178;4.450;2024-01-27T15:37:40;11.50;96.10
25937;DHT22;13733;51.178;4.450;2024-01-27T15:40:07;11.40;1.00
25937;DHT22;13733;51.178;4.450;2024-01-27T15:42:36;11.30;1.00